.
WxDataArchive / Data Records for 2015-05-19
2015-05-18 May 2015 2015-05-20

Data Records for Tuesday, 19 May 2015

Time	Temp	Chill	HIndex	Humid	Dewpt	 Wind 	HiWind	WindDir	Rain 	Barom
-----	----	-----	------	-----	-----	------	------	-------	-----	-----
00:00	63.5	63.5	63.5	60	49.4	1	3	270	0.00	30.004 
00:05	63.2	63.2	63.2	61	49.5	1	3	270	0.00	30.004 
00:10	62.9	62.9	62.9	61	49.2	1	3	270	0.00	30.004 
00:15	62.6	62.6	62.6	62	49.4	2	4	270	0.00	30.007 
00:20	62.4	62.4	62.4	59	47.9	3	5	270	0.00	30.007 
00:25	62.4	62.4	62.4	57	47.0	3	5	292	0.00	30.007 
00:30	62.3	62.3	62.3	57	46.9	3	7	292	0.00	30.013 
00:35	62.1	62.1	62.1	56	46.2	2	4	292	0.00	30.013 
00:40	61.8	61.8	61.8	57	46.4	2	6	270	0.00	30.013 
00:45	61.6	61.6	61.6	57	46.2	1	3	270	0.00	30.013 
00:50	61.3	61.3	61.3	58	46.4	0	3	270	0.00	30.013 
00:55	61.0	61.0	61.0	58	46.1	0	4	270	0.00	30.013 
01:00	60.7	60.7	60.7	59	46.3	1	4	292	0.00	30.020 
01:05	60.4	60.4	60.4	59	46.0	3	7	315	0.00	30.020 
01:10	60.2	60.2	60.2	59	45.8	3	7	315	0.00	30.020 
01:15	59.9	59.9	59.9	60	46.0	2	6	315	0.00	30.020 
01:20	59.6	59.6	59.6	60	45.7	2	5	338	0.00	30.020 
01:25	59.2	59.2	59.2	61	45.8	2	5	292	0.00	30.020 
01:30	58.9	58.9	58.9	61	45.5	2	6	315	0.00	30.022 
01:35	58.7	58.7	58.7	61	45.3	2	6	315	0.00	30.022 
01:40	58.4	58.4	58.4	61	45.0	1	5	315	0.00	30.022 
01:45	58.1	58.1	58.1	62	45.1	2	5	292	0.00	30.024 
01:50	57.8	57.8	57.8	62	44.9	2	5	292	0.00	30.024 
01:55	57.6	57.6	57.6	62	44.7	1	5	292	0.00	30.024 
02:00	57.3	57.3	57.3	63	44.8	1	4	270	0.00	30.024 
02:05	57.2	57.2	57.2	63	44.7	1	5	270	0.00	30.024 
02:10	56.9	56.9	56.9	63	44.4	2	4	292	0.00	30.024 
02:15	56.7	56.7	56.7	63	44.2	1	4	292	0.00	30.031 
02:20	56.6	56.6	56.6	63	44.2	2	4	315	0.00	30.031 
02:25	56.3	56.3	56.3	63	43.9	2	5	315	0.00	30.031 
02:30	56.2	56.2	56.2	63	43.8	2	5	292	0.00	30.028 
02:35	56.0	56.0	56.0	63	43.6	1	5	292	0.00	30.028 
02:40	55.7	55.7	55.7	63	43.3	2	4	292	0.00	30.028 
02:45	55.6	55.6	55.6	63	43.2	2	4	292	0.00	30.029 
02:50	55.4	55.4	55.4	63	43.0	2	4	270	0.00	30.029 
02:55	55.3	55.3	55.3	64	43.3	1	4	270	0.00	30.029 
03:00	55.1	55.1	55.1	65	43.5	1	4	270	0.00	30.028 
03:05	54.8	54.8	54.8	65	43.3	1	4	270	0.00	30.028 
03:10	54.7	54.7	54.7	66	43.6	1	3	270	0.00	30.028 
03:15	54.4	54.4	54.4	66	43.3	1	3	270	0.00	30.031 
03:20	54.1	54.1	54.1	66	43.0	2	4	270	0.00	30.031 
03:25	53.9	53.9	53.9	67	43.2	1	3	270	0.00	30.031 
03:30	53.6	53.6	53.6	67	42.9	2	4	270	0.00	30.035 
03:35	53.5	53.5	53.5	67	42.8	2	5	270	0.00	30.035 
03:40	53.3	53.3	53.3	67	42.6	1	3	270	0.00	30.035 
03:45	53.1	53.1	53.1	68	42.8	2	4	270	0.00	30.040 
03:50	52.8	52.8	52.8	68	42.5	2	6	338	0.00	30.040 
03:55	52.5	52.5	52.5	66	41.5	3	5	292	0.00	30.040 
04:00	52.2	52.2	52.2	65	40.8	2	5	292	0.00	30.043 
04:05	51.9	51.9	51.9	65	40.5	2	5	315	0.00	30.043 
04:10	51.7	51.7	51.7	66	40.7	2	5	315	0.00	30.043 
04:15	51.4	51.4	51.4	66	40.4	3	6	315	0.00	30.044 
04:20	51.1	51.1	51.1	67	40.5	2	5	292	0.00	30.044 
04:25	50.8	50.8	50.8	67	40.2	2	4	315	0.00	30.044 
04:30	50.5	50.5	50.5	68	40.3	2	6	315	0.00	30.044 
04:35	50.4	50.4	50.4	69	40.6	1	5	315	0.00	30.044 
04:40	50.2	50.2	50.2	69	40.4	1	2	315	0.00	30.044 
04:45	50.1	50.1	50.1	70	40.7	1	4	315	0.00	30.045 
04:50	49.9	49.9	49.9	71	40.9	1	4	315	0.00	30.045 
04:55	49.8	49.8	49.8	72	41.1	1	4	315	0.00	30.045 
05:00	49.5	49.5	49.5	72	40.9	0	3	315	0.00	30.050 
05:05	49.4	49.4	49.4	73	41.1	1	3	315	0.00	30.050 
05:10	49.2	49.2	49.2	73	40.9	1	4	315	0.00	30.050 
05:15	49.2	49.2	49.2	74	41.3	0	2	315	0.00	30.052 
05:20	48.9	48.9	48.9	74	41.0	0	3	315	0.00	30.052 
05:25	48.9	48.9	48.9	75	41.3	1	3	315	0.00	30.052 
05:30	48.8	48.8	48.8	75	41.2	1	3	315	0.00	30.056 
05:35	48.6	48.6	48.6	75	41.0	0	2	315	0.00	30.056 
05:40	48.5	48.5	48.5	76	41.3	0	5	315	0.00	30.056 
05:45	48.3	48.3	48.3	76	41.1	2	6	338	0.00	30.057 
05:50	48.0	48.0	48.0	75	40.5	2	5	315	0.00	30.057 
05:55	48.0	48.0	48.0	74	40.1	2	5	315	0.00	30.057 
06:00	47.9	47.9	47.9	74	40.0	1	3	292	0.00	30.058 
06:05	47.7	47.7	47.7	74	39.8	1	4	292	0.00	30.058 
06:10	47.6	47.6	47.6	74	39.7	1	3	292	0.00	30.058 
06:15	47.4	47.4	47.4	75	39.9	1	4	292	0.00	30.065 
06:20	47.4	47.4	47.4	74	39.5	1	5	292	0.00	30.065 
06:25	47.3	47.3	47.3	74	39.4	1	4	315	0.00	30.065 
06:30	47.3	47.3	47.3	73	39.1	2	7	292	0.00	30.070 
06:35	47.3	47.3	47.3	74	39.4	1	2	292	0.00	30.070 
06:40	47.1	47.1	47.1	75	39.6	0	2	292	0.00	30.070 
06:45	47.1	47.1	47.1	76	39.9	1	3	292	0.00	30.072 
06:50	47.0	47.0	47.0	76	39.8	1	4	292	0.00	30.072 
06:55	47.0	47.0	47.0	76	39.8	2	5	292	0.00	30.072 
07:00	47.0	47.0	47.0	76	39.8	1	3	315	0.00	30.074 
07:05	47.0	47.0	47.0	75	39.5	1	4	270	0.00	30.074 
07:10	47.0	47.0	47.0	76	39.8	1	4	270	0.00	30.074 
07:15	47.1	47.1	47.1	76	39.9	1	2	270	0.00	30.087 
07:20	47.1	47.1	47.1	75	39.6	2	4	270	0.00	30.087 
07:25	47.3	47.3	47.3	75	39.8	1	4	270	0.00	30.087 
07:30	47.4	47.4	47.4	75	39.9	1	3	270	0.00	30.088 
07:35	47.6	47.6	47.6	74	39.7	1	2	270	0.00	30.088 
07:40	47.7	47.7	47.7	73	39.5	1	5	338	0.00	30.088 
07:45	47.9	47.9	47.9	73	39.7	1	4	338	0.00	30.095 
07:50	48.0	48.0	48.0	73	39.8	2	4	292	0.00	30.095 
07:55	48.2	48.2	48.2	72	39.6	2	5	292	0.00	30.095 
08:00	48.3	48.3	48.3	71	39.3	2	5	292	0.00	30.098 
08:05	48.6	48.6	48.6	72	40.0	1	4	292	0.00	30.098 
08:10	48.8	48.8	48.8	71	39.8	2	5	270	0.00	30.098 
08:15	48.8	48.8	48.8	70	39.5	3	6	270	0.00	30.101 
08:20	48.8	48.8	48.8	70	39.5	3	7	315	0.00	30.101 
08:25	48.6	48.6	48.6	69	38.9	3	8	292	0.00	30.101 
08:30	48.6	48.6	48.6	70	39.3	2	7	315	0.00	30.106 
08:35	48.6	48.6	48.6	70	39.3	2	5	292	0.00	30.106 
08:40	48.6	48.6	48.6	69	38.9	3	6	292	0.00	30.106 
08:45	48.6	48.6	48.6	69	38.9	3	7	270	0.00	30.107 
08:50	48.6	48.6	48.6	70	39.3	3	7	270	0.00	30.107 
08:55	48.6	48.6	48.6	69	38.9	3	6	315	0.00	30.107 
09:00	48.6	48.6	48.6	70	39.3	2	5	292	0.00	30.112 
09:05	48.6	48.6	48.6	69	38.9	3	6	292	0.00	30.112 
09:10	48.6	48.6	48.6	69	38.9	2	5	315	0.00	30.112 
09:15	48.6	48.6	48.6	69	38.9	2	5	292	0.00	30.120 
09:20	48.6	48.6	48.6	68	38.5	3	6	292	0.00	30.120 
09:25	48.6	48.6	48.6	68	38.5	3	6	315	0.00	30.120 
09:30	48.6	48.6	48.6	68	38.5	3	6	292	0.00	30.119 
09:35	48.8	48.8	48.8	68	38.7	2	7	292	0.00	30.119 
09:40	48.9	48.9	48.9	68	38.8	2	5	315	0.00	30.119 
09:45	48.8	48.8	48.8	67	38.3	3	12	292	0.00	30.120 
09:50	48.9	48.9	48.9	67	38.4	2	4	292	0.00	30.120 
09:55	49.1	49.1	49.1	67	38.6	3	6	292	0.00	30.120 
10:00	49.1	49.1	49.1	66	38.2	3	6	338	0.00	30.121 
10:05	49.2	49.2	49.2	67	38.7	2	5	270	0.00	30.121 
10:10	49.2	49.2	49.2	65	37.9	3	6	270	0.00	30.121 
10:15	49.4	49.4	49.4	65	38.1	2	5	270	0.00	30.123 
10:20	49.5	49.5	49.5	65	38.2	2	5	270	0.00	30.123 
10:25	49.9	49.9	49.9	66	39.0	1	3	270	0.00	30.123 
10:30	50.1	50.1	50.1	65	38.8	2	4	270	0.00	30.129 
10:35	50.4	50.4	50.4	66	39.5	1	5	270	0.00	30.129 
10:40	50.2	50.2	50.2	64	38.5	3	6	270	0.00	30.129 
10:45	50.2	50.2	50.2	64	38.5	2	5	292	0.00	30.121 
10:50	50.2	50.2	50.2	65	38.9	2	5	292	0.00	30.121 
10:55	50.4	50.4	50.4	64	38.7	2	5	315	0.00	30.121 
11:00	50.5	50.5	50.5	65	39.2	2	6	315	0.00	30.127 
11:05	50.4	50.4	50.4	64	38.7	3	5	270	0.00	30.127 
11:10	50.4	50.4	50.4	64	38.7	2	5	270	0.00	30.127 
11:15	50.5	50.5	50.5	63	38.4	2	6	315	0.00	30.135 
11:20	50.5	50.5	50.5	63	38.4	3	7	270	0.00	30.135 
11:25	50.4	50.4	50.4	63	38.3	3	6	270	0.00	30.135 
11:30	50.5	50.5	50.5	64	38.8	2	5	338	0.00	30.135 
11:35	50.7	50.7	50.7	64	39.0	2	5	315	0.00	30.135 
11:40	50.8	50.8	50.8	63	38.7	2	6	270	0.00	30.135 
11:45	51.1	51.1	51.1	63	38.9	2	5	270	0.00	30.140 
11:50	51.1	51.1	51.1	63	38.9	2	5	270	0.00	30.140 
11:55	51.3	51.3	51.3	63	39.1	3	5	315	0.00	30.140 
12:00	51.4	51.4	51.4	64	39.6	1	4	270	0.00	30.138 
12:05	51.6	51.6	51.6	63	39.4	2	5	270	0.00	30.138 
12:10	51.4	51.4	51.4	64	39.6	3	6	315	0.00	30.138 
12:15	51.4	51.4	51.4	62	38.8	3	7	270	0.00	30.150 
12:20	51.7	51.7	51.7	63	39.5	2	5	315	0.00	30.150 
12:25	51.9	51.9	51.9	62	39.3	3	6	292	0.00	30.150 
12:30	51.6	51.6	51.6	62	39.0	3	6	270	0.00	30.139 
12:35	52.0	52.0	52.0	63	39.8	2	5	270	0.00	30.139 
12:40	52.5	52.5	52.5	62	39.9	2	6	315	0.00	30.139 
12:45	52.3	52.3	52.3	62	39.7	3	7	315	0.00	30.123 
12:50	52.3	52.3	52.3	63	40.1	2	5	270	0.00	30.123 
12:55	52.3	52.3	52.3	62	39.7	3	6	270	0.00	30.123 
13:00	52.3	52.3	52.3	62	39.7	3	6	270	0.00	30.140 
13:05	52.2	52.2	52.2	62	39.6	3	7	315	0.00	30.140 
13:10	52.3	52.3	52.3	63	40.1	2	7	270	0.00	30.140 
13:15	52.3	52.3	52.3	63	40.1	2	5	292	0.00	30.143 
13:20	52.5	52.5	52.5	62	39.9	3	6	292	0.00	30.143 
13:25	52.8	52.8	52.8	62	40.1	2	6	270	0.00	30.143 
13:30	52.8	52.8	52.8	62	40.1	3	5	270	0.00	30.141 
13:35	52.8	52.8	52.8	62	40.1	3	5	315	0.00	30.141 
13:40	53.1	53.1	53.1	62	40.4	2	4	270	0.00	30.141 
13:45	53.3	53.3	53.3	61	40.2	2	6	292	0.00	30.129 
13:50	53.3	53.3	53.3	61	40.2	1	4	292	0.00	30.129 
13:55	53.6	53.6	53.6	61	40.5	2	7	315	0.00	30.129 
14:00	53.9	53.9	53.9	60	40.3	3	5	292	0.00	30.136 
14:05	53.9	53.9	53.9	62	41.2	2	6	315	0.00	30.136 
14:10	53.8	53.8	53.8	61	40.7	3	6	292	0.00	30.136 
14:15	53.6	53.6	53.6	61	40.5	2	6	270	0.00	30.144 
14:20	53.3	53.3	53.3	62	40.6	2	5	315	0.00	30.144 
14:25	53.2	53.2	53.2	62	40.5	3	6	292	0.00	30.144 
14:30	52.8	52.8	52.8	63	40.6	3	5	292	0.00	30.145 
14:35	52.6	52.6	52.6	64	40.8	3	5	292	0.00	30.145 
14:40	52.8	52.8	52.8	64	41.0	2	5	315	0.00	30.145 
14:45	53.1	53.1	53.1	63	40.8	3	8	0	0.00	30.138 
14:50	53.2	53.2	53.2	63	40.9	3	5	270	0.00	30.138 
14:55	53.3	53.3	53.3	63	41.0	2	6	338	0.00	30.138 
15:00	53.2	53.2	53.2	63	40.9	3	6	270	0.00	30.147 
15:05	52.9	52.9	52.9	64	41.1	3	6	292	0.00	30.147 
15:10	52.5	52.5	52.5	65	41.1	3	5	338	0.00	30.147 
15:15	52.6	52.6	52.6	66	41.6	2	4	315	0.00	30.150 
15:20	52.9	52.9	52.9	65	41.5	3	6	270	0.00	30.150 
15:25	53.2	53.2	53.2	63	40.9	3	6	270	0.00	30.150 
15:30	52.9	52.9	52.9	63	40.7	4	6	270	0.00	30.149 
15:35	52.6	52.6	52.6	63	40.4	2	7	0	0.00	30.149 
15:40	52.3	52.3	52.3	65	40.9	3	6	338	0.00	30.149 
15:45	52.0	52.0	52.0	66	41.0	2	4	292	0.00	30.149 
15:50	51.6	51.6	51.6	67	41.0	3	6	292	0.00	30.149 
15:55	51.4	51.4	51.4	68	41.2	2	4	315	0.00	30.149 
16:00	51.6	51.6	51.6	68	41.4	3	5	292	0.00	30.146 
16:05	51.1	51.1	51.1	67	40.5	3	6	270	0.00	30.146 
16:10	51.0	51.0	51.0	68	40.8	3	7	315	0.00	30.146 
16:15	51.0	51.0	51.0	68	40.8	2	6	270	0.00	30.154 
16:20	50.8	50.8	50.8	68	40.6	2	6	270	0.00	30.154 
16:25	50.8	50.8	50.8	69	41.0	2	5	270	0.00	30.154 
16:30	50.7	50.7	50.7	69	40.9	2	4	315	0.00	30.155 
16:35	50.7	50.7	50.7	68	40.5	3	7	292	0.00	30.155 
16:40	50.8	50.8	50.8	69	41.0	2	6	270	0.00	30.155 
16:45	51.1	51.1	51.1	68	40.9	2	4	270	0.00	30.157 
16:50	51.3	51.3	51.3	68	41.1	2	6	292	0.00	30.157 
16:55	51.3	51.3	51.3	67	40.7	3	4	292	0.00	30.157 
17:00	51.1	51.1	51.1	66	40.1	2	5	292	0.00	30.153 
17:05	51.1	51.1	51.1	67	40.5	2	6	292	0.00	30.153 
17:10	51.1	51.1	51.1	66	40.1	3	7	270	0.00	30.153 
17:15	51.0	51.0	51.0	67	40.4	3	7	270	0.00	30.152 
17:20	51.1	51.1	51.1	67	40.5	2	5	270	0.00	30.152 
17:25	51.3	51.3	51.3	65	39.9	2	6	270	0.00	30.152 
17:30	51.3	51.3	51.3	64	39.5	3	6	270	0.00	30.151 
17:35	51.3	51.3	51.3	65	39.9	2	5	315	0.00	30.151 
17:40	51.4	51.4	51.4	65	40.0	2	5	292	0.00	30.151 
17:45	51.6	51.6	51.6	64	39.8	2	5	270	0.00	30.146 
17:50	51.4	51.4	51.4	62	38.8	3	6	292	0.00	30.146 
17:55	51.4	51.4	51.4	64	39.6	2	4	270	0.00	30.146 
18:00	51.4	51.4	51.4	65	40.0	1	4	270	0.00	30.138 
18:05	51.1	51.1	51.1	64	39.4	1	3	270	0.00	30.138 
18:10	51.1	51.1	51.1	65	39.7	2	5	270	0.00	30.138 
18:15	51.1	51.1	51.1	64	39.4	2	4	292	0.00	30.149 
18:20	51.3	51.3	51.3	65	39.9	1	4	292	0.00	30.149 
18:25	51.1	51.1	51.1	63	38.9	2	4	292	0.00	30.149 
18:30	51.1	51.1	51.1	63	38.9	2	5	292	0.00	30.146 
18:35	51.1	51.1	51.1	63	38.9	1	5	315	0.00	30.146 
18:40	51.1	51.1	51.1	62	38.5	1	4	315	0.00	30.146 
18:45	51.0	51.0	51.0	63	38.9	2	7	315	0.00	30.134 
18:50	50.8	50.8	50.8	63	38.7	1	3	338	0.00	30.134 
18:55	50.8	50.8	50.8	63	38.7	2	4	338	0.00	30.134 
19:00	50.8	50.8	50.8	63	38.7	1	4	338	0.00	30.140 
19:05	50.8	50.8	50.8	62	38.3	2	4	338	0.00	30.140 
19:10	50.8	50.8	50.8	61	37.8	2	4	315	0.00	30.140 
19:15	50.8	50.8	50.8	62	38.3	2	5	270	0.00	30.149 
19:20	50.7	50.7	50.7	62	38.2	2	5	270	0.00	30.149 
19:25	50.5	50.5	50.5	61	37.6	3	6	270	0.00	30.149 
19:30	50.4	50.4	50.4	62	37.9	2	5	292	0.00	30.152 
19:35	50.2	50.2	50.2	62	37.7	2	5	292	0.00	30.152 
19:40	50.2	50.2	50.2	62	37.7	2	5	315	0.00	30.152 
19:45	50.1	50.1	50.1	61	37.2	3	9	292	0.00	30.162 
19:50	50.1	50.1	50.1	61	37.2	2	6	270	0.00	30.162 
19:55	49.9	49.9	49.9	61	37.0	2	6	270	0.00	30.162 
20:00	49.9	49.9	49.9	62	37.4	2	4	270	0.00	30.166 
20:05	49.8	49.8	49.8	61	36.9	2	6	315	0.00	30.166 
20:10	49.6	49.6	49.6	61	36.7	2	5	292	0.00	30.166 
20:15	49.5	49.5	49.5	61	36.6	2	6	315	0.00	30.165 
20:20	49.4	49.4	49.4	61	36.5	2	6	338	0.00	30.165 
20:25	49.4	49.4	49.4	60	36.1	3	7	270	0.00	30.165 
20:30	49.2	49.2	49.2	60	35.9	2	5	292	0.00	30.177 
20:35	49.2	49.2	49.2	61	36.3	2	5	292	0.00	30.177 
20:40	49.2	49.2	49.2	61	36.3	1	4	292	0.00	30.177 
20:45	49.1	49.1	49.1	62	36.6	1	4	315	0.00	30.180 
20:50	48.9	48.9	48.9	61	36.0	3	6	270	0.00	30.180 
20:55	48.8	48.8	48.8	60	35.5	2	6	292	0.00	30.180 
21:00	48.8	48.8	48.8	60	35.5	1	5	292	0.00	30.177 
21:05	48.8	48.8	48.8	62	36.4	1	3	292	0.00	30.177 
21:10	48.6	48.6	48.6	62	36.2	1	4	292	0.00	30.177 
21:15	48.5	48.5	48.5	60	35.3	2	5	292	0.00	30.180 
21:20	48.2	48.2	48.2	60	35.0	2	7	292	0.00	30.180 
21:25	48.2	48.2	48.2	60	35.0	2	6	292	0.00	30.180 
21:30	48.0	48.0	48.0	60	34.8	1	4	338	0.00	30.183 
21:35	48.0	48.0	48.0	60	34.8	2	5	315	0.00	30.183 
21:40	47.7	47.7	47.7	60	34.5	2	6	292	0.00	30.183 
21:45	47.4	47.4	47.4	58	33.4	3	6	292	0.00	30.183 
21:50	47.3	47.3	47.3	59	33.7	2	7	338	0.00	30.183 
21:55	47.0	47.0	47.0	59	33.4	2	6	315	0.00	30.183 
22:00	47.0	47.0	47.0	60	33.8	2	7	292	0.00	30.187 
22:05	46.8	46.8	46.8	60	33.7	1	4	338	0.00	30.187 
22:10	46.7	46.7	46.7	61	34.0	1	4	338	0.00	30.187 
22:15	46.5	46.5	46.5	61	33.8	2	4	315	0.00	30.185 
22:20	46.2	46.2	46.2	60	33.1	2	5	315	0.00	30.185 
22:25	46.1	46.1	46.1	62	33.8	1	3	292	0.00	30.185 
22:30	45.8	45.8	45.8	62	33.5	0	1	292	0.00	30.183 
22:35	45.5	45.5	45.5	64	34.0	0	1	292	0.00	30.183 
22:40	45.1	45.1	45.1	64	33.7	1	3	292	0.00	30.183 
22:45	44.9	44.9	44.9	63	33.1	1	4	292	0.00	30.185 
22:50	44.6	44.6	44.6	62	32.4	1	3	292	0.00	30.185 
22:55	44.3	44.3	44.3	62	32.1	1	3	292	0.00	30.185 
23:00	44.2	44.2	44.2	62	32.0	0	3	292	0.00	30.186 
23:05	43.9	43.9	43.9	62	31.7	0	3	292	0.00	30.186 
23:10	43.8	43.8	43.8	62	31.6	0	3	292	0.00	30.186 
23:15	43.6	43.6	43.6	62	31.5	1	3	292	0.00	30.183 
23:20	43.5	43.5	43.5	62	31.4	0	2	292	0.00	30.183 
23:25	43.3	43.3	43.3	63	31.6	0	0	---	0.00	30.183 
23:30	43.1	43.1	43.1	64	31.8	0	1	292	0.00	30.172 
23:35	42.9	42.9	42.9	65	32.0	0	0	---	0.00	30.172 
23:40	42.6	42.6	42.6	66	32.0	0	1	292	0.00	30.172 
23:45	42.5	42.5	42.5	66	32.0	0	1	292	0.00	30.168 
23:50	42.2	42.2	42.2	67	32.0	0	1	292	0.00	30.168 
23:55	42.1	42.1	42.1	67	31.9	0	1	292	0.00	30.168 

CoCoRaHS
IN-AL-39
A2 Web Hosting
Creative Commons License
GoDaddy
search engine by freefind advanced

loaded 2018-11-21 00:32:28 • last modified 2010-11-18 10:43:29
Privacy PolicyDisclaimer
• wx.awcolley.com is powered by PmWiki v.2002016 •
• all content (unless otherwise noted) © 2018 A W Colley